Terminal Aerodrome Forecast
Issued by NWS

Home | Current Version | Previous Version | Text Only | Print | Product List | Glossary On
Versions: 1 2 3 4 5 6 7 8 9 10 11 12 13 14 15 16 17
000
FTUS42 KTAE 301120
TAFABY
TAF
KABY 301120Z 3012/3112 00000KT 6SM HZ SKC
     FM301600 20012G22KT P6SM SCT040
     FM310000 19006KT P6SM BKN100
     FM310600 20006KT 3SM TSRA BKN025CB
     FM310900 24005KT P6SM BKN030=

USA.gov is the U.S. government's official web portal to all federal, state and local government web resources and services.